createdAt,value
2019-02-06T00:02:16.555Z,7.67
2019-02-06T00:04:51.924Z,7.35
2019-02-06T00:07:22.607Z,8.70
2019-02-06T00:09:55.451Z,8.83
2019-02-06T00:12:29.825Z,7.20
2019-02-06T00:15:01.567Z,8.38
2019-02-06T00:17:33.191Z,7.72
2019-02-06T00:20:26.314Z,7.05
2019-02-06T00:22:47.394Z,7.70
2019-02-06T00:25:19.430Z,7.90
2019-02-06T00:27:50.968Z,8.15
2019-02-06T00:30:24.657Z,7.35
2019-02-06T00:32:58.856Z,7.50
2019-02-06T00:35:28.125Z,8.43
2019-02-06T00:38:05.133Z,7.35
2019-02-06T00:40:35.529Z,7.50
2019-02-06T00:43:05.928Z,7.60
2019-02-06T00:45:36.267Z,8.50
2019-02-06T00:48:07.792Z,8.18
2019-02-06T00:50:49.563Z,6.92
2019-02-06T00:53:25.920Z,7.12
2019-02-06T00:55:58.382Z,7.30
2019-02-06T00:58:29.916Z,6.60
2019-02-06T01:01:02.474Z,7.28
2019-02-06T01:03:37.080Z,6.92
2019-02-06T01:06:11.019Z,7.60
2019-02-06T01:08:46.104Z,8.05
2019-02-06T01:11:16.235Z,7.67
2019-02-06T01:13:47.715Z,7.28
2019-02-06T01:16:26.545Z,7.35
2019-02-06T01:18:55.887Z,7.70
2019-02-06T01:21:30.337Z,8.20
2019-02-06T01:24:05.912Z,7.30
2019-02-06T01:26:42.271Z,7.70
2019-02-06T01:29:14.476Z,8.13
2019-02-06T01:31:48.023Z,7.35
2019-02-06T01:34:21.397Z,7.15
2019-02-06T01:36:54.377Z,7.55
2019-02-06T01:39:34.612Z,7.15
2019-02-06T01:42:07.071Z,7.25
2019-02-06T01:44:43.736Z,7.90
2019-02-06T01:47:17.363Z,7.90
2019-02-06T01:49:49.533Z,7.85
2019-02-06T01:52:23.928Z,7.62
2019-02-06T01:54:58.898Z,7.03
2019-02-06T01:57:27.743Z,7.83
2019-02-06T01:59:58.619Z,8.20
2019-02-06T02:02:30.151Z,6.83
2019-02-06T02:05:03.859Z,7.47
2019-02-06T02:07:37.541Z,7.42
2019-02-06T02:10:12.700Z,7.35
2019-02-06T02:12:42.908Z,7.15
2019-02-06T02:15:26.330Z,8.40
2019-02-06T02:17:58.853Z,7.28
2019-02-06T02:20:30.326Z,7.33
2019-02-06T02:23:02.505Z,7.85
2019-02-06T02:25:35.141Z,7.80
2019-02-06T02:28:08.960Z,7.42
2019-02-06T02:30:44.133Z,6.72
2019-02-06T02:33:14.650Z,6.90
2019-02-06T02:35:50.704Z,7.50
2019-02-06T02:38:24.783Z,6.78
2019-02-06T02:40:57.622Z,7.37
2019-02-06T02:43:34.067Z,7.08
2019-02-06T02:46:06.637Z,7.28
2019-02-06T02:48:41.229Z,7.50
2019-02-06T02:51:13.553Z,7.78
2019-02-06T02:53:43.994Z,6.90
2019-02-06T02:56:14.230Z,8.13
2019-02-06T02:58:46.162Z,7.05
2019-02-06T03:01:32.848Z,7.47
2019-02-06T03:04:09.089Z,7.60
2019-02-06T03:06:37.940Z,7.08
2019-02-06T03:09:11.045Z,7.17
2019-02-06T03:11:41.464Z,7.35
2019-02-06T03:14:15.461Z,7.33
2019-02-06T03:16:49.115Z,6.67
2019-02-06T03:19:23.865Z,7.67
2019-02-06T03:21:55.292Z,7.60
2019-02-06T03:24:26.078Z,7.12
2019-02-06T03:26:57.822Z,7.45
2019-02-06T03:29:29.313Z,7.40
2019-02-06T03:32:00.112Z,7.67
2019-02-06T03:34:33.853Z,7.33
2019-02-06T03:37:06.512Z,7.40
2019-02-06T03:39:38.589Z,7.28
2019-02-06T03:42:11.730Z,8.28
2019-02-06T03:44:48.276Z,7.28
2019-02-06T03:47:19.014Z,7.05
2019-02-06T03:49:57.991Z,7.85
2019-02-06T03:52:31.477Z,7.85
2019-02-06T03:55:03.062Z,7.42
2019-02-06T03:57:35.446Z,7.05
2019-02-06T04:00:11.880Z,7.33
2019-02-06T04:02:43.391Z,7.80
2019-02-06T04:05:15.561Z,7.60
2019-02-06T04:07:49.971Z,6.70
2019-02-06T04:10:22.928Z,7.17
2019-02-06T04:12:57.883Z,6.62
2019-02-06T04:15:39.205Z,7.33
2019-02-06T04:18:16.229Z,7.55
2019-02-06T04:20:46.859Z,7.90
2019-02-06T04:23:19.368Z,7.17
2019-02-06T04:25:50.656Z,7.40
2019-02-06T04:28:24.062Z,7.70
2019-02-06T04:30:59.368Z,8.08
2019-02-06T04:33:30.909Z,7.47
2019-02-06T04:36:03.875Z,8.08
2019-02-06T04:38:35.713Z,7.58
2019-02-06T04:41:07.183Z,6.97
2019-02-06T04:43:42.638Z,7.25
2019-02-06T04:46:14.162Z,7.00
2019-02-06T04:48:44.556Z,7.05
2019-02-06T04:51:16.858Z,8.05
2019-02-06T04:53:47.402Z,7.75
2019-02-06T04:56:21.302Z,7.12
2019-02-06T04:58:52.752Z,7.40
2019-02-06T05:01:23.065Z,6.97
2019-02-06T05:03:53.000Z,7.58
2019-02-06T05:06:23.204Z,6.92
2019-02-06T05:08:56.042Z,6.87
2019-02-06T05:11:28.503Z,7.33
2019-02-06T05:14:01.972Z,6.92
2019-02-06T05:16:38.672Z,7.17
2019-02-06T05:19:15.934Z,6.60
2019-02-06T05:21:45.726Z,7.08
2019-02-06T05:24:14.497Z,7.37
2019-02-06T05:26:45.861Z,6.90
2019-02-06T05:29:18.780Z,6.70
2019-02-06T05:31:53.307Z,6.75
2019-02-06T05:34:23.980Z,6.90
2019-02-06T05:36:55.849Z,7.62
2019-02-06T05:39:28.293Z,7.17
2019-02-06T05:42:00.687Z,7.42
2019-02-06T05:44:32.411Z,6.78
2019-02-06T05:47:02.589Z,8.00
2019-02-06T05:49:33.971Z,6.53
2019-02-06T05:52:08.991Z,7.97
2019-02-06T05:54:39.837Z,7.45
2019-02-06T05:57:08.326Z,8.20
2019-02-06T05:59:38.647Z,7.62
2019-02-06T06:02:11.736Z,7.58
2019-02-06T06:04:48.193Z,7.62
2019-02-06T06:07:16.301Z,7.50
2019-02-06T06:09:48.421Z,7.28
2019-02-06T06:12:24.330Z,9.75
2019-02-06T06:14:54.022Z,8.18
2019-02-06T06:17:24.911Z,7.75
2019-02-06T06:19:59.184Z,7.33
2019-02-06T06:22:28.686Z,8.28
2019-02-06T06:24:58.617Z,8.60
2019-02-06T06:27:40.171Z,7.92
2019-02-06T06:30:13.975Z,7.67
2019-02-06T06:32:46.055Z,7.95
2019-02-06T06:35:16.537Z,8.70
2019-02-06T06:37:57.803Z,8.45
2019-02-06T06:40:20.659Z,8.78
2019-02-06T06:42:50.901Z,8.75
2019-02-06T06:45:20.737Z,9.03
2019-02-06T06:47:50.013Z,7.40
2019-02-06T06:50:21.286Z,8.03
2019-02-06T06:52:52.690Z,7.85
2019-02-06T06:55:27.275Z,8.20
2019-02-06T06:57:58.096Z,7.67
2019-02-06T07:00:28.842Z,7.53
2019-02-06T07:02:59.426Z,9.70
2019-02-06T07:05:30.562Z,8.40
2019-02-06T07:08:09.560Z,8.63
2019-02-06T07:11:14.619Z,7.75
2019-02-06T07:13:45.654Z,7.95
2019-02-06T07:16:55.202Z,7.85
2019-02-06T07:19:30.282Z,7.80
2019-02-06T07:22:28.308Z,8.63
2019-02-06T07:25:01.025Z,7.65
2019-02-06T07:30:49.769Z,7.70
2019-02-06T07:34:13.067Z,8.13
2019-02-06T07:36:42.892Z,9.95
2019-02-06T07:39:22.043Z,9.18
2019-02-06T07:41:51.255Z,9.43
2019-02-06T07:47:31.991Z,9.83
2019-02-06T07:50:58.495Z,8.17
2019-02-06T07:53:30.007Z,7.47
2019-02-06T07:56:32.257Z,7.50
2019-02-06T07:59:09.693Z,8.27
2019-02-06T08:04:53.835Z,9.57
2019-02-06T08:07:34.896Z,8.18
2019-02-06T08:10:06.127Z,8.33
2019-02-06T08:13:11.261Z,6.80
2019-02-06T08:15:45.165Z,7.97
2019-02-06T08:18:35.926Z,7.97
2019-02-06T08:21:08.576Z,10.28
2019-02-06T08:24:22.756Z,9.73
2019-02-06T08:26:52.903Z,8.03
2019-02-06T08:29:57.129Z,10.58
2019-02-06T08:32:30.663Z,11.45
2019-02-06T08:35:25.947Z,11.68
2019-02-06T08:37:56.055Z,9.33
2019-02-06T08:40:30.818Z,8.90
2019-02-06T08:43:50.961Z,7.87
2019-02-06T08:46:21.206Z,8.93
2019-02-06T08:49:29.586Z,7.70
2019-02-06T08:52:04.005Z,9.70
2019-02-06T08:55:01.542Z,7.83
2019-02-06T08:57:30.643Z,8.27
2019-02-06T09:00:47.878Z,7.63
2019-02-06T09:03:16.922Z,7.53
2019-02-06T09:06:29.297Z,7.37
2019-02-06T09:09:02.053Z,9.03
2019-02-06T09:14:43.806Z,7.77
2019-02-06T09:17:46.560Z,7.30
2019-02-06T09:20:17.242Z,7.77
2019-02-06T09:23:14.627Z,7.60
2019-02-06T09:25:50.741Z,7.30
2019-02-06T09:28:53.904Z,8.33
2019-02-06T09:31:26.681Z,8.07
2019-02-06T09:34:48.592Z,7.50
2019-02-06T09:37:21.840Z,7.17
2019-02-06T09:40:10.540Z,8.83
2019-02-06T09:42:43.033Z,8.27
2019-02-06T09:46:04.090Z,7.90
2019-02-06T09:48:36.901Z,7.17
2019-02-06T09:51:40.205Z,7.13
2019-02-06T09:54:13.836Z,7.70
2019-02-06T09:59:55.689Z,7.60
2019-02-06T10:03:10.180Z,7.87
2019-02-06T10:05:42.037Z,6.73
2019-02-06T10:08:44.829Z,8.07
2019-02-06T10:11:13.980Z,7.90
2019-02-06T10:14:28.345Z,7.53
2019-02-06T10:17:04.085Z,8.13
2019-02-06T10:20:16.590Z,7.50
2019-02-06T10:22:45.720Z,7.20
2019-02-06T10:25:57.911Z,7.63
2019-02-06T10:28:28.312Z,7.27
2019-02-06T10:31:33.692Z,7.27
2019-02-06T10:34:03.078Z,8.03
2019-02-06T10:37:03.940Z,7.80
2019-02-06T10:39:34.844Z,7.67
2019-02-06T10:42:07.874Z,7.00
2019-02-06T10:44:54.438Z,7.37
2019-02-06T10:47:26.866Z,7.57
2019-02-06T10:50:43.928Z,6.70
2019-02-06T10:53:14.709Z,7.47
2019-02-06T10:56:20.616Z,7.47
2019-02-06T10:58:49.019Z,7.40
2019-02-06T11:04:33.357Z,7.03
2019-02-06T11:07:35.983Z,6.97
2019-02-06T11:10:07.088Z,6.87
2019-02-06T11:13:12.419Z,7.33
2019-02-06T11:15:43.358Z,6.17
2019-02-06T11:18:53.300Z,6.00
2019-02-06T11:21:26.263Z,6.27
2019-02-06T11:24:30.033Z,6.67
2019-02-06T11:27:00.039Z,6.13
2019-02-06T11:29:31.423Z,5.73
2019-02-06T11:32:04.360Z,5.73
2019-02-06T11:34:35.615Z,5.50
2019-02-06T11:37:07.942Z,5.13
2019-02-06T11:39:42.622Z,5.50
2019-02-06T11:45:01.553Z,5.53
2019-02-06T11:47:30.846Z,4.97
2019-02-06T11:50:10.092Z,4.60
2019-02-06T11:52:41.424Z,4.90
2019-02-06T11:55:51.874Z,5.07
2019-02-06T11:58:20.270Z,4.83
2019-02-06T12:01:26.966Z,4.93
2019-02-06T12:03:56.214Z,5.17
2019-02-06T12:07:10.363Z,4.87
2019-02-06T12:09:39.999Z,5.10
2019-02-06T12:12:38.811Z,5.03
2019-02-06T12:15:10.009Z,4.57
2019-02-06T12:18:14.328Z,4.63
2019-02-06T12:20:44.722Z,4.67
2019-02-06T12:23:37.215Z,4.80
2019-02-06T12:26:05.673Z,5.00
2019-02-06T12:29:24.863Z,4.73
2019-02-06T12:31:58.909Z,4.57
2019-02-06T12:35:06.493Z,4.80
2019-02-06T12:37:54.981Z,4.70
2019-02-06T12:40:34.587Z,4.43
2019-02-06T12:43:05.474Z,4.73
2019-02-06T12:46:11.274Z,4.60
2019-02-06T12:48:47.505Z,5.23
2019-02-06T12:52:02.556Z,5.30
2019-02-06T12:54:33.791Z,5.70
2019-02-06T12:57:44.667Z,5.07
2019-02-06T13:00:25.564Z,5.47
2019-02-06T13:06:07.079Z,5.47
2019-02-06T13:11:54.411Z,5.77
2019-02-06T13:15:18.022Z,6.33
2019-02-06T13:17:45.561Z,6.00
2019-02-06T13:23:50.242Z,6.23
2019-02-06T13:27:05.403Z,6.23
2019-02-06T13:29:45.849Z,6.43
2019-02-06T13:33:06.943Z,5.53
2019-02-06T13:35:59.428Z,6.63
2019-02-06T13:39:15.624Z,6.43
2019-02-06T13:41:50.522Z,6.63
2019-02-06T13:47:38.929Z,6.07
2019-02-06T13:50:43.529Z,6.40
2019-02-06T13:53:14.422Z,6.60
2019-02-06T13:56:39.519Z,6.30
2019-02-06T13:59:10.771Z,6.07
2019-02-06T14:02:22.369Z,6.33
2019-02-06T14:04:53.617Z,7.40
2019-02-06T14:08:00.964Z,6.47
2019-02-06T14:10:38.092Z,6.83
2019-02-06T14:13:40.848Z,6.33
2019-02-06T14:16:13.242Z,6.17
2019-02-06T14:19:23.995Z,6.90
2019-02-06T14:21:54.444Z,5.93
2019-02-06T14:25:25.853Z,7.03
2019-02-06T14:27:54.447Z,6.00
2019-02-06T14:30:38.305Z,5.57
2019-02-06T14:33:13.944Z,6.23
2019-02-06T14:36:18.855Z,7.00
2019-02-06T14:38:57.931Z,5.80
2019-02-06T14:44:41.614Z,6.97
2019-02-06T14:50:24.990Z,5.93
2019-02-06T14:53:37.285Z,5.83
2019-02-06T14:56:13.863Z,5.53
2019-02-06T15:02:15.390Z,5.40
2019-02-06T15:04:46.848Z,6.13
2019-02-06T15:07:52.000Z,6.37
2019-02-06T15:10:31.662Z,5.43
2019-02-06T15:16:18.258Z,5.87
2019-02-06T15:19:26.583Z,5.83
2019-02-06T15:21:59.914Z,5.17
2019-02-06T15:25:11.266Z,5.17
2019-02-06T15:27:47.048Z,5.13
2019-02-06T15:31:07.059Z,4.57
2019-02-06T15:33:55.654Z,4.70
2019-02-06T15:37:05.240Z,5.03
2019-02-06T15:39:41.291Z,5.77
2019-02-06T15:42:17.652Z,4.70
2019-02-06T15:44:51.579Z,5.00
2019-02-06T15:47:24.673Z,4.87
2019-02-06T15:49:57.028Z,5.37
2019-02-06T15:52:38.632Z,5.77
2019-02-06T15:55:27.279Z,5.20
2019-02-06T15:57:57.831Z,5.27
2019-02-06T16:01:09.490Z,6.17
2019-02-06T16:03:56.316Z,4.87
2019-02-06T16:09:53.344Z,5.73
2019-02-06T16:12:55.503Z,5.93
2019-02-06T16:15:31.066Z,5.77
2019-02-06T16:21:14.907Z,6.27
2019-02-06T16:27:13.882Z,6.07
2019-02-06T16:30:30.959Z,5.90
2019-02-06T16:33:17.142Z,6.17
2019-02-06T16:36:18.768Z,6.87
2019-02-06T16:38:52.757Z,6.53
2019-02-06T16:41:22.739Z,6.40
2019-02-06T16:44:40.606Z,6.33
2019-02-06T16:47:13.397Z,6.67
2019-02-06T16:53:00.197Z,6.23
2019-02-06T16:56:05.074Z,6.63
2019-02-06T16:58:56.039Z,6.93
2019-02-06T17:02:03.890Z,8.00
2019-02-06T17:04:34.111Z,7.40
2019-02-06T17:07:45.057Z,7.13
2019-02-06T17:10:19.349Z,7.93
2019-02-06T17:13:37.118Z,6.97
2019-02-06T17:16:16.248Z,7.60
2019-02-06T17:19:02.868Z,6.77
2019-02-06T17:24:46.584Z,6.60
2019-02-06T17:27:27.035Z,7.43
2019-02-06T17:29:57.832Z,7.10
2019-02-06T17:32:33.859Z,7.63
2019-02-06T17:35:08.151Z,7.33
2019-02-06T17:41:05.571Z,6.90
2019-02-06T17:44:03.689Z,7.43
2019-02-06T17:46:42.007Z,7.30
2019-02-06T17:49:44.352Z,8.33
2019-02-06T17:52:37.670Z,7.70
2019-02-06T17:58:35.967Z,7.73
2019-02-06T18:04:23.955Z,6.77
2019-02-06T18:10:19.520Z,7.07
2019-02-06T18:13:36.380Z,7.30
2019-02-06T18:16:07.861Z,7.93
2019-02-06T18:22:00.247Z,6.80
2019-02-06T18:24:58.412Z,6.87
2019-02-06T18:27:27.811Z,9.50
2019-02-06T18:30:34.379Z,8.17
2019-02-06T18:33:02.748Z,8.40
2019-02-06T18:36:13.418Z,7.90
2019-02-06T18:38:46.620Z,7.90
2019-02-06T18:41:45.298Z,8.70
2019-02-06T18:44:18.304Z,8.97
2019-02-06T18:46:47.682Z,8.97
2019-02-06T18:49:54.037Z,8.83
2019-02-06T18:52:27.619Z,9.77
2019-02-06T18:55:47.501Z,9.60
2019-02-06T18:58:18.088Z,11.00
2019-02-06T19:04:05.442Z,8.87
2019-02-06T19:07:18.267Z,10.10
2019-02-06T19:09:50.748Z,9.10
2019-02-06T19:12:56.078Z,9.20
2019-02-06T19:15:26.355Z,9.80
2019-02-06T19:21:10.327Z,10.50
2019-02-06T19:24:22.523Z,9.93
2019-02-06T19:26:52.809Z,10.20
2019-02-06T19:30:05.653Z,10.37
2019-02-06T19:32:36.568Z,11.40
2019-02-06T19:35:41.919Z,10.60
2019-02-06T19:38:18.649Z,10.10
2019-02-06T19:41:44.603Z,11.17
2019-02-06T19:44:13.255Z,11.70
2019-02-06T19:46:45.048Z,12.67
2019-02-06T19:49:15.041Z,12.77
2019-02-06T19:52:23.157Z,11.90
2019-02-06T19:54:52.426Z,11.30
2019-02-06T19:57:49.879Z,12.20
2019-02-06T20:00:36.190Z,12.00
2019-02-06T20:03:34.103Z,11.87
2019-02-06T20:06:05.476Z,11.90
2019-02-06T20:09:17.887Z,11.13
2019-02-06T20:11:47.536Z,11.50
2019-02-06T20:17:35.328Z,11.00
2019-02-06T20:20:36.636Z,12.30
2019-02-06T20:23:06.198Z,11.53
2019-02-06T20:26:08.025Z,11.03
2019-02-06T20:28:40.763Z,10.77
2019-02-06T20:34:31.141Z,11.87
2019-02-06T20:37:30.118Z,12.63
2019-02-06T20:40:09.658Z,12.60
2019-02-06T20:42:38.247Z,12.30
2019-02-06T20:45:33.999Z,12.40
2019-02-06T20:48:03.420Z,12.13
2019-02-06T20:51:07.796Z,12.80
2019-02-06T20:53:40.437Z,12.77
2019-02-06T20:56:50.821Z,12.43
2019-02-06T20:59:19.703Z,12.20
2019-02-06T21:01:48.109Z,12.17
2019-02-06T21:04:23.538Z,13.47
2019-02-06T21:06:52.299Z,12.80
2019-02-06T21:10:18.098Z,12.87
2019-02-06T21:12:34.329Z,13.43
2019-02-06T21:17:51.186Z,13.77
2019-02-06T21:20:21.146Z,14.13
2019-02-06T21:23:22.823Z,13.13
2019-02-06T21:25:53.852Z,12.83
2019-02-06T21:28:23.192Z,13.93
2019-02-06T21:31:00.798Z,11.57
2019-02-06T21:33:29.350Z,13.53
2019-02-06T21:36:31.211Z,12.67
2019-02-06T21:38:59.735Z,12.57
2019-02-06T21:41:31.323Z,12.87
2019-02-06T21:44:00.407Z,12.10
2019-02-06T21:52:54.079Z,12.20
2019-02-06T21:55:23.224Z,12.77
2019-02-06T21:57:51.714Z,11.93
2019-02-06T22:00:24.524Z,12.37
2019-02-06T22:03:28.757Z,11.67
2019-02-06T22:05:58.874Z,11.77
2019-02-06T22:08:32.566Z,11.47
2019-02-06T22:11:32.929Z,11.27
2019-02-06T22:14:11.416Z,12.00
2019-02-06T22:16:43.329Z,11.40
2019-02-06T22:19:19.069Z,11.80
2019-02-06T22:21:51.765Z,11.83
2019-02-06T22:27:35.468Z,11.87
2019-02-06T22:30:07.031Z,11.97
2019-02-06T22:33:15.133Z,11.80
2019-02-06T22:35:43.556Z,11.50
2019-02-06T22:38:12.023Z,10.77
2019-02-06T22:40:47.753Z,11.47
2019-02-06T22:43:16.113Z,11.00
2019-02-06T22:45:44.896Z,10.73
2019-02-06T22:48:30.909Z,11.13
2019-02-06T22:50:59.639Z,10.87
2019-02-06T22:56:36.842Z,10.97
2019-02-06T22:59:08.320Z,10.53
2019-02-06T23:02:16.107Z,11.73
2019-02-06T23:04:45.360Z,11.30
2019-02-06T23:07:13.734Z,11.20
2019-02-06T23:09:51.129Z,10.93
2019-02-06T23:12:19.588Z,11.87
2019-02-06T23:15:21.693Z,11.17
2019-02-06T23:17:51.676Z,11.30
2019-02-06T23:20:20.123Z,10.90
2019-02-06T23:23:42.923Z,11.60
2019-02-06T23:26:11.327Z,11.93
2019-02-06T23:28:40.471Z,11.47
2019-02-06T23:31:15.862Z,12.13
2019-02-06T23:33:50.261Z,14.90
2019-02-06T23:39:15.037Z,13.10
2019-02-06T23:44:39.319Z,14.17
2019-02-06T23:47:06.682Z,12.37
2019-02-06T23:49:40.562Z,12.20
2019-02-06T23:52:15.075Z,12.80
2019-02-06T23:55:33.684Z,11.53
2019-02-06T23:58:09.389Z,10.63
